Las Vegas, NV

11:53 PM PST on March 05, 2015 (GMT -0800)
Rhodes Ranch | Change Station
CLOSE
Current Station
Personal Weather Station
Location: Las Vegas, NV
Elevation: 2743 ft
Nearby Weather Stations

Elev 2743 ft 36.05 °N, 115.29 °W | Updated 8 minutes ago

Clear
Clear
46.9 °F
Feels Like 47 °F
N
3.0
Wind Variable Wind from SW
Gusts 5.0 mph

Today
High -- | Low -- °F
--% Chance of Precip.
Yesterday
High -- | Low -- °F
Precip. -- in
6:06 AM 5:39 PM
Full, 100% visible
Pressure 30.27 in
Visibility 10.0 miles
Clouds Clear
Windchill 47 °F
Dew Point 28 °F
Humidity 48%
Rainfall in
Snow Depth Not available.
UV 0 out of 12
Pollen 8.60 out of 12
Air Quality Not available.
Flu Activity Not available.
METAR KLAS 060656Z 20008KT 10SM CLR 11/M01 A3028 RMK AO2 SLP251 T01061006

More Conditions Fewer Conditions

Pressure 30.27 in
Visibility 10.0 miles
Clouds Clear
Windchill 47 °F
Dew Point 28 °F
Humidity 48%
Rainfall in
Snow Depth Not available.
UV 0 out of 12
Pollen 8.60 out of 12
Air Quality Not available.
Flu Activity Not available.
METAR KLAS 060656Z 20008KT 10SM CLR 11/M01 A3028 RMK AO2 SLP251 T01061006

More Conditions Fewer Conditions

10-Day Weather Forecast

Almanac

Astronomy

Mar. 05, 2015 Rise Set
Actual Time
Civil Twilight
Nautical Twilight
Astronomical Twilight
Moon
Length of Visible Light
Length of Day
Tomorrow will be .
, % of the Moon is Illuminated

Today's Extremes

State Highs State Lows

Community

WunderPhotos

Upload Photos

1,803,199 photos uploaded!

WunderBlogs® & News

Nearby

Air Quality

  Air Quality AQ Index Pollutant
Not available.

Snow Depth

Station Depth Elevation

Earthquake Activity

City Distance Mag. Time & Date
Minimum magnitude displayed is 2.5.

Coastal Water Temperatures

Place Temperature

Nearby Weather Stations